Petersburg, Michigan
Current Conditions -  °F | °C
As of 6:34 PM on Monday 22 Dec 2014 (Local Time) from KDUH Reporting Station
Broken Clouds Broken Clouds  
Wind Chill: 31°   Ceiling: 8500
Heat Index: 36°   Visibility: 7mi
Dew Point: 32°   Wind: 6mph
Humidity: 87%   Direction: 80°E
Pressure: 29.91"   Gusts: NA
Location:  41.9°N, 83.71°W
Report Text: KDUH 222334Z AUTO 08005KT 7SM BKN085 02/00 A2991 RMK AO2
Loading
Personal Weather Stations






























Interactive Weather Map New forecast layout! Learn more

10-Day Weather Forecast

Advertisements
Track Severe Weather on mobile